createdAt,value
2018-07-01T00:02:22.391Z,98774.15
2018-07-01T00:04:49.887Z,98775.49
2018-07-01T00:07:17.337Z,98787.84
2018-07-01T00:09:44.620Z,98784.75
2018-07-01T00:12:11.979Z,98779.92
2018-07-01T00:14:39.318Z,98793.97
2018-07-01T00:19:56.570Z,98778.71
2018-07-01T00:22:23.791Z,98789.47
2018-07-01T00:24:51.416Z,98789.42
2018-07-01T00:27:18.694Z,98787.45
2018-07-01T00:29:46.007Z,98791.93
2018-07-01T00:32:13.267Z,98787.73
2018-07-01T00:34:40.563Z,98786.86
2018-07-01T00:37:07.820Z,98779.07
2018-07-01T00:39:35.125Z,98788.53
2018-07-01T00:42:02.390Z,98792.09
2018-07-01T00:44:29.646Z,98786.37
2018-07-01T00:46:56.881Z,98791.17
2018-07-01T00:49:24.235Z,98788.16
2018-07-01T00:51:51.541Z,98792.45
2018-07-01T00:54:18.768Z,98794.58
2018-07-01T00:56:46.035Z,98790.51
2018-07-01T00:59:13.282Z,98781.14
2018-07-01T01:01:40.546Z,98788.36
2018-07-01T01:04:07.795Z,98783.20
2018-07-01T01:06:35.051Z,98787.41
2018-07-01T01:09:02.467Z,98788.70
2018-07-01T01:11:29.743Z,98780.78
2018-07-01T01:13:57.006Z,98787.28
2018-07-01T01:16:24.280Z,98784.64
2018-07-01T01:18:51.558Z,98779.01
2018-07-01T01:21:18.837Z,98781.65
2018-07-01T01:23:46.072Z,98786.06
2018-07-01T01:26:13.329Z,98783.02
2018-07-01T01:28:40.543Z,98783.38
2018-07-01T01:31:08.114Z,98785.51
2018-07-01T01:33:35.490Z,98790.80
2018-07-01T01:36:02.838Z,98786.44
2018-07-01T01:38:32.215Z,98789.08
2018-07-01T01:41:04.471Z,98783.30
2018-07-01T01:43:36.457Z,98787.03
2018-07-01T01:46:08.631Z,98784.45
2018-07-01T01:48:41.610Z,98779.19
2018-07-01T01:51:12.842Z,98776.59
2018-07-01T01:53:45.948Z,98775.11
2018-07-01T01:56:24.015Z,98776.24
2018-07-01T01:59:04.901Z,98779.91
2018-07-01T02:01:45.815Z,98781.84
2018-07-01T02:04:34.194Z,98772.50
2018-07-01T02:07:05.177Z,98769.52
2018-07-01T02:09:34.302Z,98777.99
2018-07-01T02:12:03.091Z,98780.63
2018-07-01T02:15:04.547Z,98786.87
2018-07-01T02:17:37.071Z,98789.26
2018-07-01T02:20:04.744Z,98794.69
2018-07-01T02:22:36.694Z,98790.03
2018-07-01T02:25:07.342Z,98795.09
2018-07-01T02:27:34.609Z,98799.55
2018-07-01T02:30:01.933Z,98801.07
2018-07-01T02:32:29.202Z,98806.03
2018-07-01T02:34:56.457Z,98800.45
2018-07-01T02:37:23.708Z,98814.13
2018-07-01T02:39:51.026Z,98806.69
2018-07-01T02:42:18.326Z,98809.82
2018-07-01T02:44:45.633Z,98804.91
2018-07-01T02:47:12.928Z,98802.73
2018-07-01T02:49:40.378Z,98807.74
2018-07-01T02:52:07.683Z,98809.60
2018-07-01T02:54:35.024Z,98808.02
2018-07-01T02:57:03.341Z,98809.38
2018-07-01T02:59:30.724Z,98804.47
2018-07-01T03:01:58.034Z,98808.38
2018-07-01T03:04:25.457Z,98804.33
2018-07-01T03:06:52.788Z,98802.92
2018-07-01T03:09:20.135Z,98804.09
2018-07-01T03:11:47.583Z,98806.59
2018-07-01T03:14:15.046Z,98796.91
2018-07-01T03:16:42.385Z,98799.59
2018-07-01T03:19:11.134Z,98799.69
2018-07-01T03:21:39.352Z,98805.11
2018-07-01T03:24:07.816Z,98800.70
2018-07-01T03:26:35.207Z,98801.61
2018-07-01T03:29:02.524Z,98812.14
2018-07-01T03:31:29.868Z,98807.33
2018-07-01T03:33:57.279Z,98808.23
2018-07-01T03:36:24.638Z,98809.52
2018-07-01T03:38:51.990Z,98816.09
2018-07-01T03:41:19.327Z,98810.81
2018-07-01T03:43:46.702Z,98816.91
2018-07-01T03:46:14.180Z,98815.64
2018-07-01T03:48:41.519Z,98816.96
2018-07-01T03:51:08.878Z,98815.73
2018-07-01T03:53:36.815Z,98826.23
2018-07-01T03:56:04.344Z,98826.54
2018-07-01T03:58:31.853Z,98820.86
2018-07-01T04:00:59.292Z,98815.05
2018-07-01T04:03:26.772Z,98822.91
2018-07-01T04:05:54.148Z,98826.30
2018-07-01T04:08:21.510Z,98825.77
2018-07-01T04:10:48.881Z,98828.80
2018-07-01T04:13:16.218Z,98825.34
2018-07-01T04:15:44.266Z,98831.75
2018-07-01T04:18:11.740Z,98835.44
2018-07-01T04:20:39.190Z,98834.43
2018-07-01T04:23:06.599Z,98841.71
2018-07-01T04:25:34.051Z,98848.17
2018-07-01T04:28:01.515Z,98847.45
2018-07-01T04:30:28.909Z,98850.13
2018-07-01T04:32:56.790Z,98845.36
2018-07-01T04:35:24.148Z,98844.35
2018-07-01T04:37:51.537Z,98848.17
2018-07-01T04:40:18.935Z,98852.81
2018-07-01T04:42:46.240Z,98844.49
2018-07-01T04:45:14.249Z,98848.71
2018-07-01T04:47:41.682Z,98855.83
2018-07-01T04:50:09.025Z,98857.72
2018-07-01T04:52:36.538Z,98862.61
2018-07-01T04:55:04.727Z,98860.47
2018-07-01T04:57:32.058Z,98862.24
2018-07-01T04:59:59.888Z,98864.85
2018-07-01T05:02:27.404Z,98869.36
2018-07-01T05:04:54.770Z,98862.48
2018-07-01T05:07:22.223Z,98864.41
2018-07-01T05:09:49.530Z,98863.47
2018-07-01T05:12:16.907Z,98861.67
2018-07-01T05:14:44.267Z,98865.87
2018-07-01T05:17:11.754Z,98865.84
2018-07-01T05:19:39.729Z,98866.47
2018-07-01T05:22:07.127Z,98856.34
2018-07-01T05:24:34.505Z,98851.25
2018-07-01T05:27:01.946Z,98854.28
2018-07-01T05:29:29.279Z,98858.59
2018-07-01T05:31:56.646Z,98855.25
2018-07-01T05:34:23.969Z,98863.56
2018-07-01T05:36:51.478Z,98859.03
2018-07-01T05:39:18.865Z,98864.56
2018-07-01T05:41:46.195Z,98864.38
2018-07-01T05:44:13.633Z,98863.14
2018-07-01T05:46:41.038Z,98859.14
2018-07-01T05:49:08.409Z,98860.22
2018-07-01T05:51:35.778Z,98868.77
2018-07-01T05:54:03.893Z,98866.00
2018-07-01T05:56:31.240Z,98861.59
2018-07-01T05:58:58.894Z,98860.80
2018-07-01T06:01:26.292Z,98866.80
2018-07-01T06:03:53.715Z,98859.47
2018-07-01T06:06:21.184Z,98871.97
2018-07-01T06:08:48.615Z,98854.07
2018-07-01T06:11:16.185Z,98861.42
2018-07-01T06:13:43.576Z,98863.02
2018-07-01T06:16:11.060Z,98862.06
2018-07-01T06:18:38.467Z,98865.37
2018-07-01T06:21:12.072Z,98862.36
2018-07-01T06:23:39.446Z,98865.52
2018-07-01T06:26:06.804Z,98865.84
2018-07-01T06:28:34.196Z,98871.05
2018-07-01T06:31:01.568Z,98865.98
2018-07-01T06:33:28.966Z,98862.75
2018-07-01T06:35:56.339Z,98871.76
2018-07-01T06:38:24.230Z,98873.88
2018-07-01T06:40:51.556Z,98864.75
2018-07-01T06:43:18.921Z,98871.23
2018-07-01T06:45:46.379Z,98867.65
2018-07-01T06:48:13.783Z,98866.30
2018-07-01T06:50:43.052Z,98867.48
2018-07-01T06:53:10.391Z,98864.41
2018-07-01T06:55:37.713Z,98865.86
2018-07-01T06:58:05.168Z,98869.95
2018-07-01T07:00:32.569Z,98864.84
2018-07-01T07:02:59.912Z,98869.02
2018-07-01T07:05:28.032Z,98871.08
2018-07-01T07:07:55.504Z,98862.44
2018-07-01T07:10:22.887Z,98864.72
2018-07-01T07:12:50.280Z,98865.51
2018-07-01T07:15:17.662Z,98874.59
2018-07-01T07:17:44.980Z,98872.75
2018-07-01T07:20:12.357Z,98872.20
2018-07-01T07:22:39.830Z,98866.35
2018-07-01T07:25:07.179Z,98869.45
2018-07-01T07:27:34.650Z,98871.11
2018-07-01T07:30:01.988Z,98869.37
2018-07-01T07:32:29.541Z,98867.88
2018-07-01T07:34:56.922Z,98864.40
2018-07-01T07:37:24.271Z,98866.55
2018-07-01T07:39:51.679Z,98857.59
2018-07-01T07:42:19.048Z,98863.33
2018-07-01T07:44:46.452Z,98856.58
2018-07-01T07:47:13.829Z,98851.92
2018-07-01T07:49:41.866Z,98854.22
2018-07-01T07:52:09.302Z,98852.23
2018-07-01T07:54:36.727Z,98845.23
2018-07-01T07:57:04.943Z,98857.95
2018-07-01T07:59:32.408Z,98850.55
2018-07-01T08:01:59.880Z,98853.49
2018-07-01T08:04:27.123Z,98850.71
2018-07-01T08:06:54.818Z,98849.95
2018-07-01T08:09:22.234Z,98846.80
2018-07-01T08:11:49.652Z,98848.36
2018-07-01T08:14:17.074Z,98850.34
2018-07-01T08:16:44.501Z,98847.84
2018-07-01T08:19:11.876Z,98846.88
2018-07-01T08:21:39.331Z,98848.80
2018-07-01T08:24:06.923Z,98841.90
2018-07-01T08:26:34.439Z,98835.19
2018-07-01T08:29:01.910Z,98841.34
2018-07-01T08:31:29.258Z,98845.56
2018-07-01T08:33:56.623Z,98842.31
2018-07-01T08:36:24.046Z,98836.30
2018-07-01T08:38:51.475Z,98842.05
2018-07-01T08:41:18.912Z,98838.59
2018-07-01T08:43:47.215Z,98827.22
2018-07-01T08:46:14.653Z,98836.35
2018-07-01T08:48:42.018Z,98834.45
2018-07-01T08:51:09.970Z,98841.83
2018-07-01T08:53:37.331Z,98842.38
2018-07-01T08:56:05.009Z,98840.27
2018-07-01T08:58:32.422Z,98839.05
2018-07-01T09:00:59.913Z,98832.89
2018-07-01T09:03:28.045Z,98838.66
2018-07-01T09:05:55.487Z,98844.16
2018-07-01T09:08:22.935Z,98839.39
2018-07-01T09:10:50.266Z,98837.95
2018-07-01T09:13:17.996Z,98823.27
2018-07-01T09:15:46.171Z,98829.38
2018-07-01T09:18:13.652Z,98828.34
2018-07-01T09:20:41.707Z,98827.66
2018-07-01T09:23:09.154Z,98835.53
2018-07-01T09:25:37.731Z,98838.95
2018-07-01T09:28:05.818Z,98838.56
2018-07-01T09:30:33.355Z,98829.17
2018-07-01T09:33:01.005Z,98838.16
2018-07-01T09:35:28.667Z,98840.92
2018-07-01T09:37:56.313Z,98837.72
2018-07-01T09:40:23.741Z,98842.46
2018-07-01T09:42:51.309Z,98831.03
2018-07-01T09:45:39.916Z,98840.52
2018-07-01T09:48:08.455Z,98831.27
2018-07-01T09:50:36.364Z,98843.81
2018-07-01T09:53:03.876Z,98838.56
2018-07-01T09:55:32.534Z,98840.09
2018-07-01T09:58:00.955Z,98838.88
2018-07-01T10:00:28.659Z,98835.02
2018-07-01T10:02:56.148Z,98831.27
2018-07-01T10:05:23.647Z,98828.69
2018-07-01T10:07:52.168Z,98839.01
2018-07-01T10:10:19.638Z,98826.21
2018-07-01T10:12:47.127Z,98835.77
2018-07-01T10:15:14.907Z,98846.82
2018-07-01T10:17:42.487Z,98839.33
2018-07-01T10:20:09.932Z,98835.82
2018-07-01T10:22:37.425Z,98834.31
2018-07-01T10:25:04.899Z,98837.97
2018-07-01T10:27:32.348Z,98824.48
2018-07-01T10:29:59.788Z,98818.64
2018-07-01T10:32:27.289Z,98825.12
2018-07-01T10:34:54.741Z,98836.39
2018-07-01T10:37:22.275Z,98822.32
2018-07-01T10:39:49.873Z,98830.46
2018-07-01T10:42:17.774Z,98821.31
2018-07-01T10:44:45.220Z,98822.53
2018-07-01T10:47:13.205Z,98839.48
2018-07-01T10:49:40.726Z,98823.31
2018-07-01T10:52:08.335Z,98833.14
2018-07-01T10:54:35.888Z,98816.06
2018-07-01T10:57:03.558Z,98815.08
2018-07-01T10:59:31.100Z,98815.93
2018-07-01T11:01:58.589Z,98812.37
2018-07-01T11:04:26.243Z,98816.25
2018-07-01T11:06:53.786Z,98814.40
2018-07-01T11:09:21.295Z,98818.38
2018-07-01T11:11:48.779Z,98803.22
2018-07-01T11:14:16.473Z,98802.97
2018-07-01T11:16:43.996Z,98804.08
2018-07-01T11:19:11.624Z,98816.44
2018-07-01T11:21:39.124Z,98808.27
2018-07-01T11:24:06.706Z,98809.08
2018-07-01T11:26:34.278Z,98798.80
2018-07-01T11:29:02.417Z,98806.33
2018-07-01T11:31:31.004Z,98787.42
2018-07-01T11:34:00.331Z,98794.90
2018-07-01T11:36:27.813Z,98795.53
2018-07-01T11:38:55.384Z,98791.95
2018-07-01T11:41:23.412Z,98794.78
2018-07-01T11:43:50.938Z,98797.88
2018-07-01T11:46:18.821Z,98784.70
2018-07-01T11:48:46.420Z,98796.03
2018-07-01T11:51:16.584Z,98795.56
2018-07-01T11:53:44.144Z,98789.73
2018-07-01T11:56:13.294Z,98788.70
2018-07-01T11:58:40.788Z,98785.10
2018-07-01T12:01:08.757Z,98793.06
2018-07-01T12:03:36.906Z,98789.97
2018-07-01T12:06:05.117Z,98781.05
2018-07-01T12:08:32.795Z,98780.31
2018-07-01T12:11:01.557Z,98780.32
2018-07-01T12:13:30.299Z,98784.72
2018-07-01T12:15:59.634Z,98779.98
2018-07-01T12:18:28.524Z,98776.20
2018-07-01T12:20:57.110Z,98778.38
2018-07-01T12:23:25.634Z,98765.17
2018-07-01T12:25:54.025Z,98765.41
2018-07-01T12:28:21.625Z,98760.75
2018-07-01T12:30:49.119Z,98760.89
2018-07-01T12:33:16.619Z,98770.74
2018-07-01T12:35:44.368Z,98762.39
2018-07-01T12:38:11.900Z,98766.72
2018-07-01T12:40:39.452Z,98757.31
2018-07-01T12:43:07.675Z,98756.27
2018-07-01T12:45:35.253Z,98747.86
2018-07-01T12:48:03.051Z,98762.94
2018-07-01T12:50:30.822Z,98759.92
2018-07-01T12:52:59.434Z,98751.94
2018-07-01T12:55:27.078Z,98749.06
2018-07-01T12:57:54.550Z,98748.67
2018-07-01T13:00:22.859Z,98739.97
2018-07-01T13:02:51.567Z,98751.30
2018-07-01T13:05:19.253Z,98743.81
2018-07-01T13:07:46.782Z,98737.83
2018-07-01T13:10:14.238Z,98742.23
2018-07-01T13:12:41.816Z,98751.47
2018-07-01T13:15:09.399Z,98750.34
2018-07-01T13:17:36.907Z,98731.18
2018-07-01T13:20:05.295Z,98744.17
2018-07-01T13:22:32.875Z,98737.41
2018-07-01T13:25:00.332Z,98736.94
2018-07-01T13:27:27.828Z,98719.72
2018-07-01T13:29:56.116Z,98733.53
2018-07-01T13:32:23.729Z,98734.53
2018-07-01T13:34:51.243Z,98730.47
2018-07-01T13:37:18.805Z,98720.00
2018-07-01T13:39:46.291Z,98718.34
2018-07-01T13:42:14.705Z,98720.94
2018-07-01T13:44:42.893Z,98720.56
2018-07-01T13:47:10.835Z,98723.14
2018-07-01T13:49:38.549Z,98722.69
2018-07-01T13:52:06.547Z,98728.89
2018-07-01T13:54:34.290Z,98710.77
2018-07-01T13:57:01.880Z,98724.79
2018-07-01T13:59:29.511Z,98714.03
2018-07-01T14:01:57.093Z,98727.53
2018-07-01T14:04:24.702Z,98734.00
2018-07-01T14:06:52.739Z,98728.80
2018-07-01T14:09:21.036Z,98733.02
2018-07-01T14:11:48.543Z,98724.91
2018-07-01T14:14:16.599Z,98726.97
2018-07-01T14:16:44.783Z,98726.27
2018-07-01T14:19:12.970Z,98712.97
2018-07-01T14:21:40.475Z,98726.69
2018-07-01T14:24:08.611Z,98713.14
2018-07-01T14:26:36.160Z,98711.44
2018-07-01T14:29:04.419Z,98721.07
2018-07-01T14:31:31.927Z,98713.64
2018-07-01T14:33:59.400Z,98705.97
2018-07-01T14:36:27.861Z,98710.41
2018-07-01T14:38:55.566Z,98703.56
2018-07-01T14:41:23.442Z,98711.19
2018-07-01T14:43:50.973Z,98705.20
2018-07-01T14:46:18.990Z,98711.45
2018-07-01T14:48:46.718Z,98700.87
2018-07-01T14:51:14.878Z,98702.58
2018-07-01T14:53:42.733Z,98703.53
2018-07-01T14:56:13.867Z,98698.89
2018-07-01T14:58:42.529Z,98703.75
2018-07-01T15:01:12.197Z,98698.04
2018-07-01T15:03:39.624Z,98689.06
2018-07-01T15:06:09.065Z,98686.19
2018-07-01T15:08:48.726Z,98688.64
2018-07-01T15:11:22.873Z,98682.69
2018-07-01T15:13:52.095Z,98680.01
2018-07-01T15:16:23.285Z,98673.05
2018-07-01T15:18:53.552Z,98685.00
2018-07-01T15:21:24.819Z,98681.63
2018-07-01T15:23:53.710Z,98680.58
2018-07-01T15:26:23.231Z,98680.45
2018-07-01T15:28:51.801Z,98677.46
2018-07-01T15:34:14.616Z,98671.08
2018-07-01T15:36:45.403Z,98666.55
2018-07-01T15:39:13.964Z,98671.45
2018-07-01T15:41:42.320Z,98673.18
2018-07-01T15:44:12.300Z,98668.01
2018-07-01T15:46:43.649Z,98675.97
2018-07-01T15:49:12.358Z,98675.34
2018-07-01T15:51:43.088Z,98675.04
2018-07-01T15:54:13.159Z,98673.63
2018-07-01T15:56:41.819Z,98670.16
2018-07-01T15:59:10.939Z,98663.70
2018-07-01T16:01:40.179Z,98666.25
2018-07-01T16:04:10.409Z,98668.98
2018-07-01T16:06:39.709Z,98656.73
2018-07-01T16:09:12.057Z,98660.33
2018-07-01T16:11:42.429Z,98664.58
2018-07-01T16:14:12.031Z,98666.09
2018-07-01T16:16:40.259Z,98659.27
2018-07-01T16:19:08.880Z,98657.22
2018-07-01T16:21:36.975Z,98653.92
2018-07-01T16:24:04.937Z,98659.61
2018-07-01T16:26:40.595Z,98660.57
2018-07-01T16:29:09.596Z,98661.69
2018-07-01T16:31:39.205Z,98655.29
2018-07-01T16:34:08.444Z,98658.69
2018-07-01T16:36:39.061Z,98655.55
2018-07-01T16:39:32.013Z,98657.80
2018-07-01T16:42:01.270Z,98652.13
2018-07-01T16:44:30.774Z,98644.94
2018-07-01T16:46:59.492Z,98650.28
2018-07-01T16:49:27.995Z,98655.80
2018-07-01T16:51:55.411Z,98653.00
2018-07-01T16:54:22.786Z,98652.98
2018-07-01T16:56:50.263Z,98657.94
2018-07-01T16:59:17.648Z,98653.95
2018-07-01T17:01:45.222Z,98656.28
2018-07-01T17:04:12.519Z,98660.47
2018-07-01T17:06:39.933Z,98659.69
2018-07-01T17:09:08.298Z,98650.92
2018-07-01T17:11:35.742Z,98655.68
2018-07-01T17:14:03.225Z,98662.39
2018-07-01T17:16:31.229Z,98662.50
2018-07-01T17:18:58.530Z,98660.29
2018-07-01T17:21:25.864Z,98661.80
2018-07-01T17:23:53.207Z,98654.93
2018-07-01T17:26:20.621Z,98659.80
2018-07-01T17:28:47.953Z,98659.22
2018-07-01T17:33:23.986Z,98654.58
2018-07-01T17:35:51.833Z,98646.97
2018-07-01T17:38:19.390Z,98654.41
2018-07-01T17:40:46.745Z,98657.25
2018-07-01T17:43:14.154Z,98650.20
2018-07-01T17:45:42.533Z,98658.63
2018-07-01T17:48:10.000Z,98654.51
2018-07-01T17:50:37.880Z,98654.98
2018-07-01T17:53:06.379Z,98660.80
2018-07-01T17:55:33.826Z,98654.40
2018-07-01T17:58:02.443Z,98651.34
2018-07-01T18:00:30.519Z,98654.03
2018-07-01T18:02:59.114Z,98653.41
2018-07-01T18:05:26.714Z,98647.11
2018-07-01T18:07:54.944Z,98650.72
2018-07-01T18:10:22.577Z,98645.00
2018-07-01T18:12:50.292Z,98649.39
2018-07-01T18:15:21.716Z,98649.77
2018-07-01T18:17:49.198Z,98651.00
2018-07-01T18:20:16.819Z,98651.16
2018-07-01T18:23:09.758Z,98650.59
2018-07-01T18:25:13.462Z,98654.31
2018-07-01T18:27:44.761Z,98658.31
2018-07-01T18:30:09.153Z,98661.16
2018-07-01T18:32:37.927Z,98660.02
2018-07-01T18:35:06.017Z,98661.16
2018-07-01T18:37:34.015Z,98658.59
2018-07-01T18:40:02.274Z,98664.25
2018-07-01T18:42:30.970Z,98661.30
2018-07-01T18:45:02.017Z,98666.80
2018-07-01T18:47:30.864Z,98663.55
2018-07-01T18:50:01.693Z,98661.91
2018-07-01T18:52:30.774Z,98667.68
2018-07-01T18:55:02.031Z,98666.43
2018-07-01T18:57:34.248Z,98671.28
2018-07-01T19:00:05.037Z,98668.19
2018-07-01T19:02:34.869Z,98673.00
2018-07-01T19:05:04.757Z,98670.48
2018-07-01T19:07:33.143Z,98666.47
2018-07-01T19:10:01.566Z,98667.99
2018-07-01T19:12:31.719Z,98665.60
2018-07-01T19:15:02.454Z,98666.44
2018-07-01T19:17:30.264Z,98675.61
2018-07-01T19:19:58.477Z,98675.41
2018-07-01T19:22:26.284Z,98678.42
2018-07-01T19:25:01.643Z,98678.80
2018-07-01T19:27:30.116Z,98676.81
2018-07-01T19:29:58.613Z,98677.30
2018-07-01T19:32:27.498Z,98677.62
2018-07-01T19:34:55.826Z,98679.20
2018-07-01T19:37:25.653Z,98682.83
2018-07-01T19:39:54.633Z,98677.09
2018-07-01T19:42:23.922Z,98674.91
2018-07-01T19:44:54.234Z,98690.63
2018-07-01T19:47:23.484Z,98692.95
2018-07-01T19:49:53.472Z,98692.53
2018-07-01T19:52:24.048Z,98689.84
2018-07-01T19:54:52.146Z,98692.78
2018-07-01T19:57:20.629Z,98694.16
2018-07-01T19:59:48.276Z,98694.28
2018-07-01T20:02:15.852Z,98697.52
2018-07-01T20:04:45.089Z,98688.89
2018-07-01T20:07:12.493Z,98686.73
2018-07-01T20:09:40.340Z,98693.84
2018-07-01T20:12:08.059Z,98690.76
2018-07-01T20:14:36.089Z,98695.63
2018-07-01T20:17:04.446Z,98696.80
2018-07-01T20:19:31.865Z,98696.50
2018-07-01T20:21:59.737Z,98694.11
2018-07-01T20:24:27.141Z,98696.55
2018-07-01T20:26:54.420Z,98695.95
2018-07-01T20:29:21.709Z,98696.11
2018-07-01T20:31:49.000Z,98695.91
2018-07-01T20:34:29.625Z,98699.96
2018-07-01T20:37:11.971Z,98706.19
2018-07-01T20:39:41.958Z,98701.94
2018-07-01T20:42:11.407Z,98699.68
2018-07-01T20:44:38.916Z,98698.62
2018-07-01T20:47:06.228Z,98698.77
2018-07-01T20:49:33.569Z,98698.84
2018-07-01T20:52:00.939Z,98700.61
2018-07-01T20:57:28.328Z,98698.89
2018-07-01T20:59:55.592Z,98699.22
2018-07-01T21:02:22.893Z,98698.09
2018-07-01T21:04:50.174Z,98693.78
2018-07-01T21:07:17.840Z,98708.59
2018-07-01T21:09:45.119Z,98697.81
2018-07-01T21:12:12.426Z,98706.67
2018-07-01T21:14:39.918Z,98699.49
2018-07-01T21:17:07.216Z,98704.78
2018-07-01T21:19:34.454Z,98695.75
2018-07-01T21:22:01.739Z,98702.50
2018-07-01T21:24:29.002Z,98706.08
2018-07-01T21:26:56.266Z,98702.77
2018-07-01T21:29:23.542Z,98705.02
2018-07-01T21:31:50.810Z,98700.81
2018-07-01T21:34:18.058Z,98702.87
2018-07-01T21:36:45.385Z,98704.30
2018-07-01T21:39:12.621Z,98702.16
2018-07-01T21:41:40.924Z,98706.67
2018-07-01T21:44:08.553Z,98710.94
2018-07-01T21:46:35.851Z,98706.97
2018-07-01T21:49:03.167Z,98706.48
2018-07-01T21:51:30.476Z,98708.31
2018-07-01T21:53:57.803Z,98707.27
2018-07-01T21:56:25.606Z,98705.39
2018-07-01T21:58:53.868Z,98705.55
2018-07-01T22:01:21.169Z,98705.91
2018-07-01T22:03:48.474Z,98710.11
2018-07-01T22:06:15.733Z,98707.52
2018-07-01T22:08:43.011Z,98711.28
2018-07-01T22:11:33.383Z,98710.86
2018-07-01T22:14:21.910Z,98705.73
2018-07-01T22:16:49.267Z,98711.75
2018-07-01T22:19:17.421Z,98712.27
2018-07-01T22:21:45.816Z,98709.91
2018-07-01T22:24:13.869Z,98706.77
2018-07-01T22:26:41.706Z,98712.25
2018-07-01T22:29:09.716Z,98712.98
2018-07-01T22:31:36.979Z,98712.40
2018-07-01T22:34:04.282Z,98722.38
2018-07-01T22:36:31.568Z,98709.80
2018-07-01T22:38:59.016Z,98703.32
2018-07-01T22:41:26.454Z,98708.47
2018-07-01T22:43:53.728Z,98701.31
2018-07-01T22:46:20.962Z,98708.69
2018-07-01T22:48:48.243Z,98703.75
2018-07-01T22:51:15.477Z,98702.38
2018-07-01T22:53:42.811Z,98702.77
2018-07-01T22:56:10.094Z,98704.36
2018-07-01T22:58:37.359Z,98699.53
2018-07-01T23:01:04.717Z,98697.16
2018-07-01T23:03:32.010Z,98699.22
2018-07-01T23:05:59.304Z,98701.34
2018-07-01T23:08:26.578Z,98703.53
2018-07-01T23:10:53.877Z,98699.30
2018-07-01T23:13:21.156Z,98702.66
2018-07-01T23:15:48.476Z,98703.27
2018-07-01T23:18:15.788Z,98697.26
2018-07-01T23:20:43.085Z,98695.06
2018-07-01T23:23:10.336Z,98690.11
2018-07-01T23:25:37.630Z,98690.02
2018-07-01T23:28:04.908Z,98688.27
2018-07-01T23:30:32.198Z,98700.27
2018-07-01T23:32:59.482Z,98696.38
2018-07-01T23:35:26.767Z,98696.33
2018-07-01T23:37:54.042Z,98688.44
2018-07-01T23:40:22.015Z,98687.04
2018-07-01T23:42:49.301Z,98688.80
2018-07-01T23:45:16.644Z,98687.36
2018-07-01T23:47:43.948Z,98687.30
2018-07-01T23:50:11.279Z,98685.34
2018-07-01T23:52:38.586Z,98681.42
2018-07-01T23:55:06.630Z,98687.17
2018-07-01T23:57:33.906Z,98688.33
